Terminal Aerodrome Forecast
Issued by NWS

Home | Current Version | Previous Version | Text Only | Print | Product List | Glossary On
Versions: 1 2 3 4 5 6 7 8 9 10 11 12
000
FTUS43 KSGF 031700
TAFBBG
TAF
KBBG 031720Z 0318/0418 17011G17KT P6SM FEW040 SCT120 BKN250
     FM040000 17009KT P6SM BKN250 WS020/20035KT
     FM041100 16008KT P6SM SCT250=

USA.gov is the U.S. government's official web portal to all federal, state and local government web resources and services.